createdAt,value
2018-07-06T00:01:45.814Z,19.52
2018-07-06T00:04:26.020Z,19.56
2018-07-06T00:07:06.375Z,19.33
2018-07-06T00:09:46.487Z,19.35
2018-07-06T00:12:26.589Z,19.38
2018-07-06T00:15:06.988Z,19.43
2018-07-06T00:17:47.189Z,19.49
2018-07-06T00:20:27.476Z,19.24
2018-07-06T00:23:07.808Z,19.39
2018-07-06T00:25:48.105Z,19.40
2018-07-06T00:28:28.361Z,19.44
2018-07-06T00:31:08.709Z,19.41
2018-07-06T00:33:49.000Z,19.38
2018-07-06T00:36:29.627Z,19.42
2018-07-06T00:39:09.951Z,19.36
2018-07-06T00:41:50.083Z,19.23
2018-07-06T00:44:30.190Z,19.22
2018-07-06T00:47:10.522Z,19.19
2018-07-06T00:49:50.722Z,18.88
2018-07-06T00:52:30.967Z,19.11
2018-07-06T00:55:11.217Z,19.25
2018-07-06T00:57:53.272Z,19.26
2018-07-06T01:00:33.489Z,19.44
2018-07-06T01:03:13.802Z,19.42
2018-07-06T01:05:54.144Z,19.22
2018-07-06T01:08:34.192Z,19.09
2018-07-06T01:11:14.495Z,19.11
2018-07-06T01:13:54.898Z,18.97
2018-07-06T01:16:34.994Z,19.14
2018-07-06T01:19:15.205Z,19.16
2018-07-06T01:21:55.541Z,19.11
2018-07-06T01:24:35.755Z,19.00
2018-07-06T01:27:15.830Z,19.00
2018-07-06T01:29:56.061Z,19.01
2018-07-06T01:32:36.185Z,18.93
2018-07-06T01:35:16.371Z,19.09
2018-07-06T01:37:56.556Z,18.95
2018-07-06T01:40:42.437Z,18.87
2018-07-06T01:43:22.455Z,18.93
2018-07-06T01:46:02.752Z,18.93
2018-07-06T01:48:42.918Z,18.85
2018-07-06T01:51:23.144Z,18.97
2018-07-06T01:54:03.293Z,18.76
2018-07-06T01:56:43.573Z,18.81
2018-07-06T01:59:23.754Z,18.65
2018-07-06T02:02:04.079Z,18.63
2018-07-06T02:04:44.217Z,18.64
2018-07-06T02:07:25.054Z,18.68
2018-07-06T02:10:05.285Z,18.63
2018-07-06T02:12:45.627Z,18.73
2018-07-06T02:15:25.943Z,18.58
2018-07-06T02:18:06.165Z,18.55
2018-07-06T02:20:46.361Z,18.56
2018-07-06T02:23:26.520Z,18.61
2018-07-06T02:26:06.923Z,18.64
2018-07-06T02:28:47.270Z,18.57
2018-07-06T02:31:27.689Z,18.57
2018-07-06T02:34:07.942Z,18.68
2018-07-06T02:36:48.274Z,18.31
2018-07-06T02:39:28.370Z,18.18
2018-07-06T02:42:08.686Z,18.20
2018-07-06T02:44:48.883Z,18.13
2018-07-06T02:47:29.171Z,18.25
2018-07-06T02:50:09.567Z,18.38
2018-07-06T02:52:49.889Z,17.97
2018-07-06T02:55:30.031Z,17.99
2018-07-06T02:58:10.211Z,18.19
2018-07-06T03:00:50.387Z,17.91
2018-07-06T03:03:30.602Z,18.10
2018-07-06T03:06:10.817Z,18.20
2018-07-06T03:08:51.160Z,18.25
2018-07-06T03:11:36.909Z,18.20
2018-07-06T03:14:17.304Z,18.13
2018-07-06T03:16:57.433Z,18.25
2018-07-06T03:19:37.662Z,18.25
2018-07-06T03:22:17.867Z,18.38
2018-07-06T03:24:57.953Z,18.10
2018-07-06T03:27:38.221Z,18.06
2018-07-06T03:30:18.389Z,17.94
2018-07-06T03:32:58.697Z,17.91
2018-07-06T03:35:39.034Z,17.89
2018-07-06T03:38:19.273Z,18.18
2018-07-06T03:40:59.442Z,18.16
2018-07-06T03:43:39.887Z,18.02
2018-07-06T03:46:20.188Z,17.76
2018-07-06T03:49:00.821Z,17.76
2018-07-06T03:51:40.991Z,17.90
2018-07-06T03:54:21.351Z,17.89
2018-07-06T03:57:01.549Z,18.00
2018-07-06T03:59:41.847Z,17.90
2018-07-06T04:02:22.197Z,17.79
2018-07-06T04:05:02.345Z,17.90
2018-07-06T04:07:42.673Z,18.01
2018-07-06T04:10:22.857Z,17.85
2018-07-06T04:13:03.165Z,17.87
2018-07-06T04:15:43.379Z,17.72
2018-07-06T04:18:23.551Z,17.69
2018-07-06T04:21:03.819Z,17.81
2018-07-06T04:23:44.035Z,17.81
2018-07-06T04:26:24.318Z,17.56
2018-07-06T04:29:04.447Z,17.57
2018-07-06T04:31:44.849Z,17.50
2018-07-06T04:34:25.205Z,17.58
2018-07-06T04:37:05.419Z,17.63
2018-07-06T04:39:45.719Z,17.71
2018-07-06T04:42:25.873Z,17.84
2018-07-06T04:45:06.294Z,17.97
2018-07-06T04:47:52.212Z,18.14
2018-07-06T04:50:32.478Z,18.15
2018-07-06T04:53:12.556Z,18.23
2018-07-06T04:55:52.929Z,18.14
2018-07-06T04:58:33.175Z,17.97
2018-07-06T05:01:13.415Z,18.02
2018-07-06T05:03:53.699Z,18.05
2018-07-06T05:06:34.020Z,18.05
2018-07-06T05:09:14.224Z,17.92
2018-07-06T05:12:00.136Z,17.84
2018-07-06T05:14:40.444Z,17.84
2018-07-06T05:17:20.588Z,18.01
2018-07-06T05:20:00.934Z,17.85
2018-07-06T05:22:41.291Z,17.87
2018-07-06T05:25:21.426Z,17.87
2018-07-06T05:28:01.818Z,17.85
2018-07-06T05:30:42.311Z,18.00
2018-07-06T05:33:22.548Z,18.21
2018-07-06T05:36:02.783Z,18.13
2018-07-06T05:38:43.132Z,18.29
2018-07-06T05:41:23.538Z,18.42
2018-07-06T05:44:03.691Z,18.46
2018-07-06T05:46:43.884Z,18.44
2018-07-06T05:49:24.310Z,18.34
2018-07-06T05:52:04.445Z,18.09
2018-07-06T05:54:44.780Z,18.17
2018-07-06T05:57:25.108Z,17.99
2018-07-06T06:00:05.322Z,18.08
2018-07-06T06:02:45.676Z,18.20
2018-07-06T06:05:25.772Z,18.16
2018-07-06T06:07:53.656Z,17.97
2018-07-06T06:10:22.552Z,18.11
2018-07-06T06:12:51.532Z,18.22
2018-07-06T06:15:20.467Z,18.21
2018-07-06T06:17:49.384Z,18.32
2018-07-06T06:20:18.642Z,18.26
2018-07-06T06:22:53.166Z,18.38
2018-07-06T06:25:22.121Z,18.51
2018-07-06T06:27:51.284Z,18.50
2018-07-06T06:30:20.280Z,18.62
2018-07-06T06:32:49.266Z,18.63
2018-07-06T06:35:18.226Z,18.34
2018-07-06T06:37:47.206Z,18.37
2018-07-06T06:40:16.141Z,18.50
2018-07-06T06:42:45.124Z,18.63
2018-07-06T06:45:14.054Z,18.78
2018-07-06T06:47:43.008Z,18.86
2018-07-06T06:50:11.952Z,18.82
2018-07-06T06:52:40.925Z,18.88
2018-07-06T06:55:09.888Z,18.80
2018-07-06T06:57:38.919Z,18.92
2018-07-06T07:00:07.850Z,18.94
2018-07-06T07:02:36.912Z,19.04
2018-07-06T07:05:05.920Z,19.05
2018-07-06T07:07:34.996Z,19.04
2018-07-06T07:10:03.867Z,19.11
2018-07-06T07:12:32.790Z,19.23
2018-07-06T07:15:01.751Z,19.26
2018-07-06T07:17:30.716Z,19.29
2018-07-06T07:19:59.752Z,19.39
2018-07-06T07:22:34.348Z,19.89
2018-07-06T07:25:03.327Z,20.32
2018-07-06T07:27:32.269Z,20.65
2018-07-06T07:30:01.228Z,21.17
2018-07-06T07:32:30.155Z,21.46
2018-07-06T07:34:59.137Z,21.72
2018-07-06T07:37:28.165Z,21.77
2018-07-06T07:39:57.120Z,22.01
2018-07-06T07:42:26.045Z,21.88
2018-07-06T07:44:55.019Z,22.10
2018-07-06T07:47:29.543Z,21.79
2018-07-06T07:50:04.032Z,21.52
2018-07-06T07:52:44.399Z,21.33
2018-07-06T07:55:13.381Z,21.61
2018-07-06T07:57:42.377Z,21.82
2018-07-06T08:00:11.310Z,21.88
2018-07-06T08:02:40.277Z,22.01
2018-07-06T08:05:09.191Z,22.12
2018-07-06T08:07:38.186Z,22.17
2018-07-06T08:10:07.111Z,21.97
2018-07-06T08:12:36.193Z,21.96
2018-07-06T08:15:05.201Z,22.08
2018-07-06T08:17:34.099Z,22.04
2018-07-06T08:20:03.068Z,22.04
2018-07-06T08:22:32.134Z,21.98
2018-07-06T08:25:01.107Z,22.11
2018-07-06T08:27:30.028Z,22.17
2018-07-06T08:29:58.967Z,22.29
2018-07-06T08:32:27.899Z,22.46
2018-07-06T08:35:08.190Z,22.48
2018-07-06T08:37:50.447Z,22.41
2018-07-06T08:40:20.115Z,22.27
2018-07-06T08:42:51.177Z,22.21
2018-07-06T08:45:20.142Z,22.28
2018-07-06T08:47:51.719Z,22.19
2018-07-06T08:50:20.685Z,22.03
2018-07-06T08:52:50.411Z,21.95
2018-07-06T08:55:19.771Z,21.97
2018-07-06T08:57:49.847Z,22.05
2018-07-06T09:00:18.837Z,22.33
2018-07-06T09:02:47.755Z,22.39
2018-07-06T09:05:16.682Z,22.51
2018-07-06T09:07:45.634Z,22.77
2018-07-06T09:10:14.564Z,22.67
2018-07-06T09:12:43.573Z,22.69
2018-07-06T09:15:12.510Z,22.58
2018-07-06T09:17:41.434Z,22.44
2018-07-06T09:20:10.484Z,22.26
2018-07-06T09:22:39.370Z,22.32
2018-07-06T09:25:08.671Z,22.51
2018-07-06T09:27:37.590Z,22.57
2018-07-06T09:30:06.562Z,22.47
2018-07-06T09:32:35.501Z,22.54
2018-07-06T09:35:04.546Z,22.58
2018-07-06T09:37:33.518Z,22.62
2018-07-06T09:40:02.420Z,22.68
2018-07-06T09:42:31.333Z,22.75
2018-07-06T09:45:00.245Z,22.62
2018-07-06T09:47:29.201Z,22.57
2018-07-06T09:49:58.109Z,22.67
2018-07-06T09:52:27.025Z,22.76
2018-07-06T09:54:55.966Z,22.83
2018-07-06T09:57:24.897Z,22.94
2018-07-06T09:59:53.849Z,23.15
2018-07-06T10:02:22.805Z,23.26
2018-07-06T10:04:51.837Z,23.32
2018-07-06T10:07:20.783Z,23.36
2018-07-06T10:09:49.780Z,23.06
2018-07-06T10:12:18.737Z,22.95
2018-07-06T10:14:47.662Z,22.91
2018-07-06T10:17:16.603Z,22.81
2018-07-06T10:19:45.597Z,22.96
2018-07-06T10:22:14.469Z,22.93
2018-07-06T10:24:43.368Z,22.80
2018-07-06T10:27:12.323Z,22.99
2018-07-06T10:29:50.475Z,23.08
2018-07-06T10:32:21.819Z,23.28
2018-07-06T10:34:51.592Z,23.52
2018-07-06T10:37:20.939Z,23.61
2018-07-06T10:39:50.434Z,23.74
2018-07-06T10:42:19.236Z,23.75
2018-07-06T10:44:48.146Z,23.75
2018-07-06T10:47:17.125Z,23.52
2018-07-06T10:49:46.084Z,23.56
2018-07-06T10:52:15.692Z,23.65
2018-07-06T10:54:44.968Z,23.54
2018-07-06T10:57:13.887Z,23.86
2018-07-06T10:59:42.809Z,24.07
2018-07-06T11:02:11.813Z,24.11
2018-07-06T11:04:40.787Z,24.13
2018-07-06T11:07:09.750Z,24.18
2018-07-06T11:09:38.839Z,24.23
2018-07-06T11:12:07.772Z,24.13
2018-07-06T11:14:36.745Z,24.06
2018-07-06T11:17:05.659Z,24.15
2018-07-06T11:19:34.591Z,24.15
2018-07-06T11:22:03.474Z,24.18
2018-07-06T11:24:32.439Z,24.38
2018-07-06T11:27:01.400Z,24.30
2018-07-06T11:29:30.361Z,24.14
2018-07-06T11:31:59.375Z,23.92
2018-07-06T11:34:28.359Z,23.68
2018-07-06T11:36:57.315Z,23.76
2018-07-06T11:39:26.251Z,23.98
2018-07-06T11:41:55.213Z,24.10
2018-07-06T11:44:24.131Z,23.97
2018-07-06T11:46:53.080Z,24.06
2018-07-06T11:49:22.058Z,24.44
2018-07-06T11:51:51.005Z,24.54
2018-07-06T11:54:19.937Z,24.54
2018-07-06T11:56:48.862Z,24.41
2018-07-06T11:59:17.787Z,24.49
2018-07-06T12:01:46.833Z,24.55
2018-07-06T12:04:15.796Z,24.66
2018-07-06T12:06:44.683Z,24.66
2018-07-06T12:09:13.661Z,24.66
2018-07-06T12:11:42.878Z,24.77
2018-07-06T12:14:11.839Z,24.82
2018-07-06T12:16:40.734Z,24.88
2018-07-06T12:19:13.005Z,24.77
2018-07-06T12:21:41.914Z,24.80
2018-07-06T12:24:10.811Z,24.76
2018-07-06T12:26:39.810Z,24.81
2018-07-06T12:29:08.735Z,24.89
2018-07-06T12:31:37.597Z,24.99
2018-07-06T12:34:06.622Z,25.05
2018-07-06T12:36:35.581Z,25.00
2018-07-06T12:39:04.967Z,24.99
2018-07-06T12:41:33.908Z,25.08
2018-07-06T12:44:02.837Z,25.08
2018-07-06T12:46:31.950Z,25.07
2018-07-06T12:49:00.918Z,25.12
2018-07-06T12:51:29.873Z,25.15
2018-07-06T12:53:58.787Z,25.17
2018-07-06T12:56:27.725Z,25.18
2018-07-06T12:58:56.686Z,25.18
2018-07-06T13:01:25.614Z,25.14
2018-07-06T13:03:54.543Z,25.10
2018-07-06T13:06:23.565Z,25.04
2018-07-06T13:08:52.627Z,25.05
2018-07-06T13:11:21.564Z,25.01
2018-07-06T13:13:50.497Z,25.04
2018-07-06T13:16:19.359Z,25.04
2018-07-06T13:18:48.318Z,25.06
2018-07-06T13:21:17.293Z,25.11
2018-07-06T13:23:46.528Z,25.00
2018-07-06T13:26:15.499Z,24.90
2018-07-06T13:28:44.459Z,24.87
2018-07-06T13:31:13.396Z,24.97
2018-07-06T13:33:42.381Z,25.15
2018-07-06T13:36:11.427Z,25.15
2018-07-06T13:38:40.410Z,25.01
2018-07-06T13:41:09.417Z,25.13
2018-07-06T13:43:38.470Z,25.25
2018-07-06T13:46:07.395Z,25.19
2018-07-06T13:48:36.335Z,24.83
2018-07-06T13:51:05.296Z,24.79
2018-07-06T13:53:34.273Z,24.93
2018-07-06T13:56:03.244Z,25.08
2018-07-06T13:58:32.199Z,25.09
2018-07-06T14:01:01.154Z,25.11
2018-07-06T14:03:30.117Z,25.17
2018-07-06T14:06:00.074Z,25.12
2018-07-06T14:08:29.006Z,25.09
2018-07-06T14:10:57.927Z,25.07
2018-07-06T14:13:26.958Z,25.08
2018-07-06T14:15:55.855Z,25.17
2018-07-06T14:18:25.139Z,25.24
2018-07-06T14:20:54.055Z,25.14
2018-07-06T14:23:22.961Z,25.11
2018-07-06T14:25:52.014Z,25.02
2018-07-06T14:28:20.971Z,25.04
2018-07-06T14:30:49.939Z,24.97
2018-07-06T14:33:24.371Z,24.71
2018-07-06T14:35:53.404Z,24.70
2018-07-06T14:38:22.303Z,24.56
2018-07-06T14:40:51.342Z,24.58
2018-07-06T14:43:20.221Z,24.49
2018-07-06T14:45:49.179Z,24.48
2018-07-06T14:48:18.106Z,24.42
2018-07-06T14:50:47.046Z,24.30
2018-07-06T14:53:15.971Z,24.42
2018-07-06T14:55:44.908Z,24.49
2018-07-06T14:58:13.799Z,24.46
2018-07-06T15:00:42.752Z,24.36
2018-07-06T15:03:11.688Z,24.48
2018-07-06T15:05:40.717Z,24.55
2018-07-06T15:08:09.654Z,24.39
2018-07-06T15:10:38.629Z,24.36
2018-07-06T15:13:07.548Z,24.60
2018-07-06T15:15:36.466Z,24.75
2018-07-06T15:18:05.576Z,24.87
2018-07-06T15:20:34.502Z,24.86
2018-07-06T15:23:03.514Z,24.94
2018-07-06T15:25:32.420Z,24.96
2018-07-06T15:28:01.344Z,25.08
2018-07-06T15:30:30.299Z,25.05
2018-07-06T15:32:59.196Z,25.00
2018-07-06T15:35:28.201Z,24.99
2018-07-06T15:37:57.077Z,25.04
2018-07-06T15:40:26.314Z,24.92
2018-07-06T15:42:55.248Z,24.90
2018-07-06T15:45:24.166Z,24.91
2018-07-06T15:47:59.785Z,24.96
2018-07-06T15:50:28.728Z,24.85
2018-07-06T15:52:57.671Z,24.91
2018-07-06T15:55:26.566Z,24.89
2018-07-06T15:58:01.045Z,24.77
2018-07-06T16:00:30.036Z,24.69
2018-07-06T16:02:59.000Z,24.75
2018-07-06T16:05:28.015Z,24.81
2018-07-06T16:07:56.912Z,24.66
2018-07-06T16:10:25.980Z,24.60
2018-07-06T16:12:54.967Z,24.65
2018-07-06T16:15:23.878Z,24.70
2018-07-06T16:17:52.793Z,24.65
2018-07-06T16:20:21.701Z,24.71
2018-07-06T16:22:50.661Z,24.62
2018-07-06T16:25:19.586Z,24.48
2018-07-06T16:27:48.566Z,24.48
2018-07-06T16:30:17.492Z,24.59
2018-07-06T16:32:46.445Z,24.57
2018-07-06T16:35:15.506Z,24.59
2018-07-06T16:37:44.395Z,24.63
2018-07-06T16:40:13.324Z,24.66
2018-07-06T16:42:42.310Z,24.71
2018-07-06T16:45:11.192Z,24.79
2018-07-06T16:47:40.100Z,24.85
2018-07-06T16:50:08.975Z,24.79
2018-07-06T16:52:37.944Z,24.78
2018-07-06T16:55:06.840Z,24.76
2018-07-06T16:57:41.304Z,24.75
2018-07-06T17:00:10.393Z,24.84
2018-07-06T17:02:39.358Z,24.87
2018-07-06T17:05:08.284Z,24.89
2018-07-06T17:07:37.292Z,24.91
2018-07-06T17:10:06.337Z,24.93
2018-07-06T17:12:35.284Z,24.87
2018-07-06T17:15:04.277Z,24.84
2018-07-06T17:17:33.220Z,24.76
2018-07-06T17:20:02.215Z,24.86
2018-07-06T17:22:31.186Z,24.73
2018-07-06T17:25:00.124Z,24.52
2018-07-06T17:27:29.079Z,24.54
2018-07-06T17:29:58.018Z,24.38
2018-07-06T17:32:32.477Z,24.45
2018-07-06T17:35:06.846Z,24.52
2018-07-06T17:37:41.263Z,24.37
2018-07-06T17:40:10.201Z,24.31
2018-07-06T17:42:39.234Z,24.33
2018-07-06T17:45:08.166Z,24.21
2018-07-06T17:47:37.042Z,24.20
2018-07-06T17:50:06.132Z,24.30
2018-07-06T17:52:35.084Z,24.34
2018-07-06T17:55:04.011Z,24.22
2018-07-06T17:57:32.924Z,24.15
2018-07-06T18:00:01.975Z,24.20
2018-07-06T18:02:30.989Z,24.29
2018-07-06T18:04:59.890Z,24.31
2018-07-06T18:07:28.973Z,24.30
2018-07-06T18:09:57.890Z,24.30
2018-07-06T18:12:32.284Z,24.30
2018-07-06T18:15:01.302Z,24.24
2018-07-06T18:17:31.512Z,24.16
2018-07-06T18:20:00.556Z,24.14
2018-07-06T18:22:35.487Z,24.16
2018-07-06T18:25:10.170Z,24.08
2018-07-06T18:27:39.086Z,24.13
2018-07-06T18:30:08.025Z,24.05
2018-07-06T18:32:36.979Z,23.97
2018-07-06T18:35:05.959Z,23.98
2018-07-06T18:37:35.000Z,24.01
2018-07-06T18:40:03.840Z,24.02
2018-07-06T18:42:32.892Z,24.00
2018-07-06T18:45:07.620Z,23.94
2018-07-06T18:47:36.696Z,23.90
2018-07-06T18:50:08.800Z,23.89
2018-07-06T18:52:37.738Z,23.93
2018-07-06T18:55:06.682Z,23.93
2018-07-06T18:57:35.656Z,23.80
2018-07-06T19:00:04.682Z,23.67
2018-07-06T19:02:33.596Z,23.72
2018-07-06T19:05:02.701Z,23.73
2018-07-06T19:07:31.654Z,23.54
2018-07-06T19:10:00.605Z,23.53
2018-07-06T19:12:29.686Z,23.59
2018-07-06T19:14:58.587Z,23.42
2018-07-06T19:17:31.398Z,23.42
2018-07-06T19:20:00.322Z,23.41
2018-07-06T19:22:29.287Z,23.46
2018-07-06T19:24:58.208Z,23.34
2018-07-06T19:27:32.694Z,23.35
2018-07-06T19:30:01.649Z,23.42
2018-07-06T19:32:30.634Z,23.41
2018-07-06T19:34:59.550Z,23.44
2018-07-06T19:37:28.536Z,23.31
2018-07-06T19:40:03.141Z,23.16
2018-07-06T19:42:32.150Z,23.12
2018-07-06T19:45:01.136Z,23.12
2018-07-06T19:47:30.114Z,22.96
2018-07-06T19:49:59.050Z,22.73
2018-07-06T19:52:27.982Z,22.74
2018-07-06T19:54:56.950Z,22.62
2018-07-06T19:57:25.915Z,22.58
2018-07-06T19:59:54.824Z,22.67
2018-07-06T20:02:23.730Z,22.50
2018-07-06T20:04:52.765Z,22.47
2018-07-06T20:07:21.690Z,22.45
2018-07-06T20:09:50.640Z,22.34
2018-07-06T20:12:19.666Z,22.33
2018-07-06T20:14:54.242Z,22.32
2018-07-06T20:17:28.541Z,22.23
2018-07-06T20:20:03.170Z,22.21
2018-07-06T20:22:32.344Z,22.17
2018-07-06T20:25:01.306Z,22.26
2018-07-06T20:27:30.286Z,22.33
2018-07-06T20:29:59.504Z,22.31
2018-07-06T20:32:28.545Z,22.26
2018-07-06T20:34:57.714Z,22.18
2018-07-06T20:37:26.710Z,22.07
2018-07-06T20:39:55.669Z,21.92
2018-07-06T20:42:24.647Z,21.94
2018-07-06T20:44:53.707Z,22.00
2018-07-06T20:47:22.640Z,22.00
2018-07-06T20:49:51.682Z,22.01
2018-07-06T20:52:20.696Z,22.06
2018-07-06T20:54:49.667Z,22.22
2018-07-06T20:57:18.629Z,22.21
2018-07-06T20:59:47.609Z,22.30
2018-07-06T21:02:16.541Z,22.22
2018-07-06T21:04:45.647Z,22.21
2018-07-06T21:07:14.508Z,22.28
2018-07-06T21:09:43.697Z,22.21
2018-07-06T21:12:12.601Z,22.28
2018-07-06T21:14:41.767Z,22.31
2018-07-06T21:17:10.703Z,22.25
2018-07-06T21:19:39.659Z,22.25
2018-07-06T21:22:08.675Z,22.18
2018-07-06T21:24:37.766Z,22.24
2018-07-06T21:27:06.729Z,22.32
2018-07-06T21:29:35.701Z,22.22
2018-07-06T21:32:04.701Z,22.12
2018-07-06T21:34:33.707Z,22.20
2018-07-06T21:37:02.951Z,22.25
2018-07-06T21:39:37.541Z,22.22
2018-07-06T21:42:06.540Z,22.23
2018-07-06T21:44:35.561Z,22.34
2018-07-06T21:47:05.000Z,22.28
2018-07-06T21:49:34.138Z,21.98
2018-07-06T21:52:03.209Z,22.05
2018-07-06T21:54:32.202Z,22.11
2018-07-06T21:57:01.279Z,21.92
2018-07-06T21:59:30.334Z,21.96
2018-07-06T22:01:59.699Z,21.92
2018-07-06T22:04:28.709Z,21.94
2018-07-06T22:06:57.681Z,22.04
2018-07-06T22:09:33.349Z,22.03
2018-07-06T22:12:02.305Z,22.01
2018-07-06T22:14:31.403Z,22.09
2018-07-06T22:17:00.382Z,21.89
2018-07-06T22:19:29.318Z,21.79
2018-07-06T22:21:58.309Z,21.69
2018-07-06T22:24:27.191Z,21.72
2018-07-06T22:26:56.120Z,21.75
2018-07-06T22:29:25.124Z,21.63
2018-07-06T22:31:54.056Z,21.64
2018-07-06T22:34:22.976Z,21.59
2018-07-06T22:36:51.987Z,21.29
2018-07-06T22:39:20.960Z,21.42
2018-07-06T22:41:50.424Z,21.37
2018-07-06T22:44:19.442Z,21.42
2018-07-06T22:46:48.367Z,21.47
2018-07-06T22:49:17.341Z,21.44
2018-07-06T22:51:46.404Z,21.47
2018-07-06T22:54:15.325Z,21.38
2018-07-06T22:56:44.305Z,21.43
2018-07-06T22:59:13.250Z,21.46
2018-07-06T23:01:42.170Z,21.49
2018-07-06T23:04:11.131Z,21.46
2018-07-06T23:06:40.091Z,21.42
2018-07-06T23:09:09.014Z,21.24
2018-07-06T23:11:37.935Z,21.37
2018-07-06T23:14:07.116Z,21.38
2018-07-06T23:16:41.545Z,21.27
2018-07-06T23:19:16.138Z,21.31
2018-07-06T23:21:45.105Z,21.29
2018-07-06T23:24:14.179Z,21.26
2018-07-06T23:26:43.122Z,21.21
2018-07-06T23:29:12.205Z,21.08
2018-07-06T23:31:41.147Z,21.06
2018-07-06T23:34:10.085Z,21.01
2018-07-06T23:36:39.087Z,20.86
2018-07-06T23:39:07.997Z,20.80
2018-07-06T23:41:36.989Z,20.61
2018-07-06T23:44:06.433Z,20.63
2018-07-06T23:46:35.357Z,20.68
2018-07-06T23:49:04.435Z,20.71
2018-07-06T23:51:33.453Z,20.64
2018-07-06T23:54:02.471Z,20.62
2018-07-06T23:56:31.446Z,20.64
2018-07-06T23:59:00.373Z,20.70
